Time;durP1;ratioP1;P1;durP2;ratioP2;P2;SDS_P1;SDS_P2;PMS_P1;PMS_P2;Temp;Humidity;BMP_temperature;BMP_pressure;BME280_temperature;BME280_humidity;BME280_pressure;Samples;Min_cycle;Max_cycle;Signal;HPM_P1;HPM_P2
2021/03/07 00:02:06;;;;;;;40.83;4.95;;;4.90;95.90;;;;;;5094520;28;20192;-72
2021/03/07 00:04:33;;;;;;;41.47;4.57;;;4.90;95.90;;;;;;5094855;28;20533;-71
2021/03/07 00:06:59;;;;;;;40.10;5.30;;;5.00;95.80;;;;;;5094581;28;20185;-72
2021/03/07 00:09:25;;;;;;;28.05;3.53;;;5.00;96.30;;;;;;5092505;28;20186;-73
2021/03/07 00:11:51;;;;;;;29.38;4.10;;;5.00;96.00;;;;;;5085081;28;20189;-74
2021/03/07 00:14:17;;;;;;;46.75;5.07;;;5.00;96.10;;;;;;5093639;28;20228;-72
2021/03/07 00:16:44;;;;;;;37.05;4.70;;;4.90;96.60;;;;;;5093869;28;20173;-73
2021/03/07 00:19:10;;;;;;;43.90;4.32;;;4.90;96.30;;;;;;5086530;28;20192;-72
2021/03/07 00:21:36;;;;;;;34.20;4.80;;;4.90;96.20;;;;;;5094088;28;20184;-72
2021/03/07 00:24:03;;;;;;;32.22;4.03;;;4.90;96.30;;;;;;5094028;28;20660;-73
2021/03/07 00:26:29;;;;;;;38.45;3.78;;;5.00;96.30;;;;;;5094184;28;20196;-72
2021/03/07 00:28:55;;;;;;;36.92;4.90;;;4.90;96.00;;;;;;5093573;28;20196;-73
2021/03/07 00:31:21;;;;;;;37.35;4.30;;;4.90;96.20;;;;;;5093656;28;20224;-72
2021/03/07 00:33:48;;;;;;;44.83;5.18;;;4.90;96.30;;;;;;5076215;28;20213;-73
2021/03/07 00:36:14;;;;;;;31.52;3.55;;;4.80;96.50;;;;;;5093393;28;20180;-70
2021/03/07 00:38:40;;;;;;;31.92;4.80;;;4.90;96.50;;;;;;5092127;28;20212;-73
2021/03/07 00:41:06;;;;;;;34.53;3.50;;;5.00;96.30;;;;;;5094220;28;20634;-69
2021/03/07 00:43:32;;;;;;;33.38;4.50;;;4.90;96.40;;;;;;5093424;28;20188;-73
2021/03/07 00:45:58;;;;;;;57.60;6.22;;;4.80;96.60;;;;;;5094125;28;20196;-72
2021/03/07 00:48:24;;;;;;;41.67;4.65;;;4.90;96.40;;;;;;5093735;28;20563;-70
2021/03/07 00:50:50;;;;;;;34.88;2.95;;;5.00;96.30;;;;;;5093769;28;20646;-69
2021/03/07 00:53:16;;;;;;;31.48;4.70;;;5.10;96.30;;;;;;5092774;28;20228;-72
2021/03/07 00:55:43;;;;;;;44.08;5.28;;;5.00;96.30;;;;;;5093602;28;20189;-71
2021/03/07 00:58:09;;;;;;;34.28;4.25;;;5.00;96.30;;;;;;5083983;28;20181;-71
2021/03/07 01:00:35;;;;;;;40.45;4.15;;;4.90;96.40;;;;;;5093314;28;20181;-75
2021/03/07 01:03:01;;;;;;;26.48;4.07;;;4.80;96.50;;;;;;5093485;28;20177;-71
2021/03/07 01:05:30;;;;;;;28.73;4.60;;;4.90;96.40;;;;;;5092866;28;20184;-70
2021/03/07 01:07:56;;;;;;;42.15;4.45;;;5.00;96.10;;;;;;5090677;28;20188;-72
2021/03/07 01:10:37;;;;;;;30.00;3.85;;;5.20;95.50;;;;;;5093385;28;20513;-71
2021/03/07 01:13:05;;;;;;;35.97;3.35;;;5.10;95.80;;;;;;5093451;28;20199;-71
2021/03/07 01:15:31;;;;;;;39.67;4.07;;;5.20;95.50;;;;;;5093138;28;20505;-72
2021/03/07 01:17:58;;;;;;;30.38;3.65;;;5.20;95.30;;;;;;5093492;28;20184;-71
2021/03/07 01:20:24;;;;;;;28.98;3.58;;;5.20;95.30;;;;;;5085057;28;20161;-72
2021/03/07 01:22:50;;;;;;;31.15;3.50;;;5.30;94.80;;;;;;5093455;28;20169;-70
2021/03/07 01:25:24;;;;;;;44.53;4.30;;;5.40;94.40;;;;;;5092803;28;20189;-72
2021/03/07 01:27:50;;;;;;;33.95;4.05;;;5.50;94.30;;;;;;5093263;28;20176;-74
2021/03/07 01:30:18;;;;;;;33.80;4.13;;;5.30;94.50;;;;;;5092874;28;20223;-75
2021/03/07 01:32:44;;;;;;;27.70;3.20;;;5.30;94.60;;;;;;5092623;28;20630;-75
2021/03/07 01:35:11;;;;;;;26.23;3.45;;;5.40;94.40;;;;;;5093008;28;20181;-72
2021/03/07 01:37:37;;;;;;;42.17;3.42;;;5.50;94.40;;;;;;5092077;28;20185;-73
2021/03/07 01:40:15;;;;;;;28.40;3.70;;;5.50;94.50;;;;;;5091257;28;20177;-71
2021/03/07 01:42:51;;;;;;;37.17;3.20;;;5.50;94.40;;;;;;5092811;28;20189;-71
2021/03/07 01:45:25;;;;;;;37.75;3.78;;;5.50;94.40;;;;;;5092350;28;20176;-71
2021/03/07 01:47:53;;;;;;;29.63;3.80;;;5.40;94.60;;;;;;5091436;28;20192;-71
2021/03/07 01:50:21;;;;;;;31.17;3.30;;;5.40;94.70;;;;;;5085428;28;20630;-75
2021/03/07 01:52:47;;;;;;;30.90;3.40;;;5.40;94.70;;;;;;5092650;28;20185;-72
2021/03/07 01:55:15;;;;;;;28.52;3.58;;;5.30;94.90;;;;;;5062746;28;20177;-71
2021/03/07 01:57:41;;;;;;;28.23;4.22;;;5.40;94.90;;;;;;5064060;28;20172;-72
2021/03/07 02:00:08;;;;;;;28.10;3.25;;;5.40;94.70;;;;;;5091927;28;20184;-73
2021/03/07 02:02:35;;;;;;;21.92;3.25;;;5.40;94.80;;;;;;5092284;28;20174;-73
2021/03/07 02:05:11;;;;;;;23.13;2.67;;;5.50;94.50;;;;;;5092689;28;20181;-71
2021/03/07 02:07:38;;;;;;;41.78;4.65;;;5.50;94.40;;;;;;5091991;28;20168;-72
2021/03/07 02:10:05;;;;;;;45.63;5.93;;;5.50;94.70;;;;;;5092319;28;20196;-75
2021/03/07 02:12:33;;;;;;;29.08;3.25;;;5.50;94.60;;;;;;5092157;28;20181;-73
2021/03/07 02:14:59;;;;;;;41.42;4.68;;;5.50;94.70;;;;;;5075828;28;20228;-70
2021/03/07 02:17:25;;;;;;;25.27;3.38;;;5.40;94.70;;;;;;5074052;28;20178;-74
2021/03/07 02:19:52;;;;;;;37.55;4.13;;;5.50;94.60;;;;;;5082588;28;20185;-70
2021/03/07 02:22:50;;;;;;;43.30;4.50;;;5.40;94.80;;;;;;5073632;28;20180;-69
2021/03/07 02:25:16;;;;;;;41.88;5.60;;;5.40;94.90;;;;;;5069337;28;20185;-71
2021/03/07 02:27:42;;;;;;;35.33;4.20;;;5.40;94.90;;;;;;5083496;28;20184;-72
2021/03/07 02:30:10;;;;;;;37.83;3.20;;;5.40;94.90;;;;;;5084322;28;20692;-75
2021/03/07 02:32:40;;;;;;;34.67;4.07;;;5.40;95.00;;;;;;5073524;28;20177;-71
2021/03/07 02:35:08;;;;;;;39.90;4.10;;;5.40;95.00;;;;;;5090543;28;20180;-69
2021/03/07 02:37:35;;;;;;;43.38;4.57;;;5.40;94.90;;;;;;5091358;28;20177;-71
2021/03/07 02:40:01;;;;;;;40.20;4.15;;;5.30;95.10;;;;;;5074411;28;20176;-74
2021/03/07 02:42:28;;;;;;;37.13;4.22;;;5.30;95.60;;;;;;5091835;28;20174;-70
2021/03/07 02:45:08;;;;;;;28.42;4.22;;;5.40;95.00;;;;;;5077366;28;20552;-71
2021/03/07 02:47:35;;;;;;;23.60;3.20;;;5.40;95.00;;;;;;5090508;28;20201;-71
2021/03/07 02:50:09;;;;;;;30.67;4.22;;;5.40;95.00;;;;;;5091897;28;20180;-72
2021/03/07 02:52:36;;;;;;;23.83;3.70;;;5.30;95.40;;;;;;5091644;28;20504;-72
2021/03/07 02:55:02;;;;;;;37.72;4.47;;;5.30;95.20;;;;;;5082945;28;20213;-70
2021/03/07 02:57:29;;;;;;;30.15;3.85;;;5.30;95.30;;;;;;5076020;28;20184;-71
2021/03/07 02:59:56;;;;;;;35.40;4.53;;;5.20;95.40;;;;;;5091378;28;20181;-71
2021/03/07 03:02:22;;;;;;;47.05;4.60;;;5.30;95.40;;;;;;5071858;28;20622;-72
2021/03/07 03:04:48;;;;;;;33.17;3.72;;;5.30;95.40;;;;;;5057422;28;20173;-71
2021/03/07 03:07:15;;;;;;;42.55;4.45;;;5.30;95.40;;;;;;5075252;28;20622;-70
2021/03/07 03:09:41;;;;;;;30.00;3.42;;;5.30;95.50;;;;;;5077571;28;20671;-72
2021/03/07 03:12:07;;;;;;;19.00;3.10;;;5.40;95.40;;;;;;5080921;28;20549;-71
2021/03/07 03:14:33;;;;;;;26.58;5.07;;;5.30;95.40;;;;;;5071469;28;20569;-72
2021/03/07 03:17:00;;;;;;;32.22;3.67;;;5.30;95.40;;;;;;5060288;28;20181;-72
2021/03/07 03:19:28;;;;;;;35.28;4.40;;;5.30;95.40;;;;;;5091353;28;20625;-71
2021/03/07 03:21:54;;;;;;;38.17;4.07;;;5.30;95.60;;;;;;5061844;28;20176;-71
2021/03/07 03:24:20;;;;;;;42.28;3.80;;;5.30;95.50;;;;;;5082165;28;20191;-72
2021/03/07 03:26:47;;;;;;;32.72;3.67;;;5.20;95.60;;;;;;5091413;28;20533;-73
2021/03/07 03:29:13;;;;;;;28.33;3.97;;;5.30;95.80;;;;;;5091743;28;20192;-70
2021/03/07 03:31:39;;;;;;;30.25;4.38;;;5.30;95.80;;;;;;5095136;28;20189;-71
2021/03/07 03:34:06;;;;;;;36.05;4.57;;;5.20;95.90;;;;;;5094896;28;20209;-69
2021/03/07 03:36:32;;;;;;;45.33;4.57;;;5.10;96.20;;;;;;5094145;28;20626;-71
2021/03/07 03:39:18;;;;;;;42.88;5.28;;;5.20;96.00;;;;;;5095493;28;20181;-71
2021/03/07 03:41:47;;;;;;;47.38;6.50;;;5.30;96.00;;;;;;5090538;28;20153;-71
2021/03/07 03:44:15;;;;;;;26.08;3.85;;;5.30;96.00;;;;;;5069172;28;20177;-71
2021/03/07 03:46:41;;;;;;;34.05;4.22;;;5.10;96.20;;;;;;5064018;28;20193;-70
2021/03/07 03:49:43;;;;;;;28.70;4.82;;;5.30;95.80;;;;;;5093154;28;20178;-71
2021/03/07 03:52:09;;;;;;;36.17;4.07;;;5.30;95.90;;;;;;5074542;28;20192;-70
2021/03/07 03:54:45;;;;;;;36.40;4.70;;;5.20;95.90;;;;;;5072112;28;20228;-70
2021/03/07 03:57:12;;;;;;;34.03;4.28;;;5.30;95.90;;;;;;5052955;28;20185;-71
2021/03/07 03:59:38;;;;;;;40.00;3.72;;;5.30;95.90;;;;;;5062800;28;20169;-72
2021/03/07 04:02:04;;;;;;;44.28;4.65;;;5.20;96.00;;;;;;5092849;28;20182;-70
2021/03/07 04:04:30;;;;;;;42.38;3.90;;;5.20;96.00;;;;;;5092597;28;20197;-71
2021/03/07 04:06:56;;;;;;;27.98;4.03;;;5.30;95.50;;;;;;5079099;28;20527;-71
2021/03/07 04:09:22;;;;;;;29.35;3.25;;;5.30;95.80;;;;;;5093106;28;20180;-72
2021/03/07 04:11:48;;;;;;;22.42;3.03;;;5.30;95.80;;;;;;5062547;28;20197;-70
2021/03/07 04:14:18;;;;;;;30.35;3.78;;;5.40;95.80;;;;;;5089956;28;20208;-71
2021/03/07 04:16:46;;;;;;;35.67;4.38;;;5.30;95.70;;;;;;5078026;28;20170;-70
2021/03/07 04:19:12;;;;;;;37.05;4.32;;;5.20;96.00;;;;;;5071408;28;20194;-74
2021/03/07 04:21:39;;;;;;;34.63;4.93;;;5.10;96.30;;;;;;5094043;28;20177;-71
2021/03/07 04:24:06;;;;;;;32.38;5.18;;;5.10;96.60;;;;;;5076737;28;20177;-71
2021/03/07 04:26:32;;;;;;;40.38;4.60;;;5.10;96.50;;;;;;5059831;28;20169;-70
2021/03/07 04:28:58;;;;;;;54.30;4.57;;;5.00;96.60;;;;;;5076691;28;20174;-71
2021/03/07 04:31:24;;;;;;;35.30;4.47;;;5.10;96.40;;;;;;5093986;28;20213;-73
2021/03/07 04:33:52;;;;;;;34.47;5.03;;;5.00;96.50;;;;;;5073819;28;21399;-72
2021/03/07 04:36:18;;;;;;;36.90;4.03;;;5.00;96.40;;;;;;5093810;28;20535;-73
2021/03/07 04:38:44;;;;;;;36.88;3.70;;;4.90;96.20;;;;;;5090734;28;20255;-72
2021/03/07 04:41:11;;;;;;;21.52;3.20;;;4.90;96.00;;;;;;5090924;28;20182;-70
2021/03/07 04:43:48;;;;;;;35.88;3.97;;;4.90;96.00;;;;;;5093913;28;20172;-72
2021/03/07 04:46:16;;;;;;;31.92;3.42;;;4.90;96.00;;;;;;5093775;28;20660;-70
2021/03/07 04:48:42;;;;;;;33.88;3.38;;;4.90;96.00;;;;;;5093766;28;20645;-72
2021/03/07 04:51:09;;;;;;;34.08;3.63;;;4.80;96.00;;;;;;5093661;28;20656;-70
2021/03/07 04:53:35;;;;;;;34.10;5.10;;;4.90;95.80;;;;;;5092949;28;20677;-73
2021/03/07 04:56:01;;;;;;;23.42;3.33;;;4.80;95.80;;;;;;5075413;28;20189;-69
2021/03/07 04:58:27;;;;;;;32.22;3.50;;;4.80;95.70;;;;;;5094190;28;20497;-71
2021/03/07 05:00:53;;;;;;;25.55;3.35;;;4.90;95.20;;;;;;5093356;28;20177;-70
2021/03/07 05:03:19;;;;;;;12.68;1.38;;;4.50;94.50;;;;;;5093429;28;20656;-70
2021/03/07 05:05:48;;;;;;;7.88;0.82;;;4.10;93.80;;;;;;5093479;28;20182;-70
2021/03/07 05:08:14;;;;;;;3.88;0.60;;;3.70;92.80;;;;;;5093426;28;20177;-71
2021/03/07 05:10:40;;;;;;;3.05;0.50;;;3.30;93.00;;;;;;5093364;28;20169;-72
2021/03/07 05:13:06;;;;;;;1.45;0.32;;;2.90;92.60;;;;;;5093404;28;20197;-72
2021/03/07 05:15:33;;;;;;;3.40;0.50;;;2.70;92.50;;;;;;5092854;28;20221;-72
2021/03/07 05:17:59;;;;;;;1.63;0.20;;;2.50;92.40;;;;;;5093365;28;20178;-71
2021/03/07 05:20:25;;;;;;;2.40;0.13;;;2.40;92.70;;;;;;5093156;28;20197;-72
2021/03/07 05:22:51;;;;;;;0.40;0.10;;;2.30;92.90;;;;;;5091963;28;20186;-72
2021/03/07 05:25:18;;;;;;;4.43;0.20;;;2.30;92.80;;;;;;5092995;28;20181;-71
2021/03/07 05:27:44;;;;;;;2.17;0.30;;;2.30;92.90;;;;;;5092934;28;20173;-70
2021/03/07 05:30:10;;;;;;;3.50;0.30;;;2.20;92.90;;;;;;5093224;28;20209;-72
2021/03/07 05:32:37;;;;;;;0.57;0.10;;;2.20;92.90;;;;;;5093101;28;20184;-73
2021/03/07 05:35:03;;;;;;;2.33;0.40;;;2.10;92.70;;;;;;5092428;28;20581;-71
2021/03/07 05:37:29;;;;;;;3.85;0.30;;;2.10;92.40;;;;;;5092908;28;20172;-69
2021/03/07 05:39:55;;;;;;;2.83;0.20;;;2.00;92.70;;;;;;5092695;28;20185;-69
2021/03/07 05:42:22;;;;;;;3.15;0.20;;;2.00;92.70;;;;;;5092757;28;20177;-73
2021/03/07 05:44:48;;;;;;;1.05;0.20;;;1.90;92.40;;;;;;5074751;28;20570;-72
2021/03/07 05:47:16;;;;;;;0.43;0.10;;;2.00;92.20;;;;;;5077869;28;20224;-72
2021/03/07 05:49:42;;;;;;;4.40;0.20;;;1.90;91.80;;;;;;5092199;28;20621;-72
2021/03/07 05:52:09;;;;;;;0.65;0.15;;;1.80;92.10;;;;;;5092062;28;20185;-71
2021/03/07 05:54:35;;;;;;;0.30;0.10;;;1.80;91.60;;;;;;5092260;28;20208;-70
2021/03/07 05:57:02;;;;;;;0.45;0.15;;;1.80;91.50;;;;;;5092218;28;20177;-71
2021/03/07 05:59:29;;;;;;;2.65;0.30;;;1.80;91.60;;;;;;5090615;28;20173;-72
2021/03/07 06:01:56;;;;;;;0.00;0.00;;;1.80;91.40;;;;;;5091734;28;20173;-71
2021/03/07 06:04:22;;;;;;;2.00;0.13;;;1.80;91.00;;;;;;5092088;28;20193;-73
2021/03/07 06:06:48;;;;;;;0.95;0.08;;;1.80;90.90;;;;;;5091917;28;20201;-71
2021/03/07 06:09:28;;;;;;;1.13;0.20;;;1.80;91.00;;;;;;5092555;28;20629;-71
2021/03/07 06:11:56;;;;;;;1.95;0.10;;;1.70;91.00;;;;;;5090608;28;20176;-71
2021/03/07 06:14:32;;;;;;;1.88;0.10;;;1.80;91.00;;;;;;5092267;28;20201;-71
2021/03/07 06:17:05;;;;;;;0.65;0.10;;;1.90;90.50;;;;;;5074878;28;20251;-71
2021/03/07 06:19:52;;;;;;;2.92;0.20;;;1.80;91.00;;;;;;5092188;28;20181;-69
2021/03/07 06:22:18;;;;;;;0.40;0.10;;;1.80;90.70;;;;;;5092425;28;20165;-73
2021/03/07 06:24:44;;;;;;;1.85;0.20;;;1.80;91.40;;;;;;5081889;28;20177;-72
2021/03/07 06:27:12;;;;;;;0.40;0.20;;;1.70;91.30;;;;;;5092402;28;20176;-73
2021/03/07 06:29:58;;;;;;;1.60;0.20;;;1.70;91.10;;;;;;5085525;28;20708;-72
2021/03/07 06:32:29;;;;;;;0.77;0.20;;;1.60;91.50;;;;;;5064744;28;20185;-73
2021/03/07 06:34:56;;;;;;;4.00;0.20;;;1.60;91.70;;;;;;5074375;28;20204;-73
2021/03/07 06:37:22;;;;;;;6.45;0.35;;;1.70;91.20;;;;;;5091529;28;20185;-73
2021/03/07 06:39:49;;;;;;;1.85;0.20;;;1.70;91.50;;;;;;5092287;28;20173;-73
2021/03/07 06:42:15;;;;;;;0.63;0.20;;;1.60;91.90;;;;;;5092372;28;20169;-73
2021/03/07 06:44:58;;;;;;;7.10;0.28;;;1.50;91.60;;;;;;5069154;28;20174;-72
2021/03/07 06:47:24;;;;;;;0.10;0.10;;;1.40;91.70;;;;;;5072212;28;20189;-73
2021/03/07 06:50:14;;;;;;;1.30;0.10;;;1.50;91.80;;;;;;5054331;28;20189;-72
2021/03/07 06:53:10;;;;;;;1.60;0.30;;;1.60;91.80;;;;;;5090236;28;20165;-73
2021/03/07 06:55:43;;;;;;;0.20;0.00;;;1.70;91.50;;;;;;5063800;28;20223;-71
2021/03/07 06:58:16;;;;;;;10.23;0.52;;;1.80;91.40;;;;;;5073406;28;20204;-72
2021/03/07 07:00:42;;;;;;;0.75;0.20;;;2.00;91.10;;;;;;5092268;28;20184;-72
2021/03/07 07:03:12;;;;;;;3.30;0.40;;;2.00;90.60;;;;;;5092188;28;20166;-72
2021/03/07 07:05:43;;;;;;;0.60;0.10;;;2.00;90.80;;;;;;5095979;28;20157;-72
2021/03/07 07:08:10;;;;;;;1.17;0.20;;;2.10;90.40;;;;;;5095923;28;20157;-73
2021/03/07 07:10:49;;;;;;;0.90;0.10;;;2.10;90.70;;;;;;5078169;28;20184;-73
2021/03/07 07:13:15;;;;;;;1.25;0.28;;;2.20;90.20;;;;;;5109516;28;20179;-73
2021/03/07 07:16:00;;;;;;;1.15;0.10;;;2.20;90.10;;;;;;5116570;28;20211;-72
2021/03/07 07:18:26;;;;;;;2.92;0.35;;;2.30;89.60;;;;;;5116698;28;20172;-72
2021/03/07 07:20:53;;;;;;;0.65;0.20;;;2.30;88.00;;;;;;5098250;28;20172;-72
2021/03/07 07:23:20;;;;;;;2.45;0.20;;;2.50;88.00;;;;;;5103287;28;20180;-72
2021/03/07 07:25:47;;;;;;;1.00;0.20;;;2.60;87.30;;;;;;5095826;28;20626;-73
2021/03/07 07:28:13;;;;;;;0.50;0.10;;;2.80;85.40;;;;;;5096176;28;20199;-72
2021/03/07 07:30:40;;;;;;;1.20;0.30;;;2.80;83.40;;;;;;5095943;28;20212;-73
2021/03/07 07:33:15;;;;;;;1.90;0.30;;;2.90;81.40;;;;;;5077738;28;20177;-73
2021/03/07 07:35:42;;;;;;;0.40;0.10;;;2.90;81.40;;;;;;5078789;28;20201;-72
2021/03/07 07:38:08;;;;;;;1.90;0.25;;;3.10;80.70;;;;;;5060948;28;20166;-70
2021/03/07 07:40:39;;;;;;;0.50;0.20;;;3.10;78.50;;;;;;5077338;28;20185;-73
2021/03/07 07:43:05;;;;;;;3.13;0.40;;;3.20;79.60;;;;;;5095398;28;20176;-72
2021/03/07 07:45:31;;;;;;;0.50;0.10;;;3.20;79.10;;;;;;5095464;28;20188;-71
2021/03/07 07:47:57;;;;;;;1.27;0.40;;;3.30;78.50;;;;;;5095585;28;20190;-71
2021/03/07 07:50:33;;;;;;;4.53;0.20;;;3.30;75.00;;;;;;5114068;28;20242;-72
2021/03/07 07:53:01;;;;;;;0.68;0.20;;;3.40;73.80;;;;;;5115864;28;20161;-69
2021/03/07 07:55:50;;;;;;;0.52;0.10;;;3.40;74.50;;;;;;5095114;28;20209;-73
2021/03/07 07:58:35;;;;;;;0.57;0.10;;;3.50;71.70;;;;;;5077158;28;20176;-70
2021/03/07 08:01:03;;;;;;;2.10;0.20;;;3.60;69.60;;;;;;5095275;28;20191;-73
2021/03/07 08:03:42;;;;;;;3.67;0.32;;;3.60;68.70;;;;;;5077428;28;20165;-72
2021/03/07 08:06:09;;;;;;;1.75;0.20;;;3.80;69.10;;;;;;5076430;28;20185;-72
2021/03/07 08:08:37;;;;;;;1.80;0.30;;;3.80;66.70;;;;;;5094529;28;20547;-70
2021/03/07 08:11:07;;;;;;;3.22;0.32;;;3.80;66.80;;;;;;5076833;28;20186;-74
2021/03/07 08:13:33;;;;;;;2.35;0.30;;;3.90;64.70;;;;;;5095155;28;20170;-71
2021/03/07 08:16:00;;;;;;;1.92;0.30;;;4.10;63.80;;;;;;5093953;28;20552;-72
2021/03/07 08:18:59;;;;;;;1.23;0.25;;;4.10;60.30;;;;;;5076497;28;20181;-73
2021/03/07 08:21:25;;;;;;;1.20;0.40;;;4.20;58.90;;;;;;5039321;28;20251;-73
2021/03/07 08:24:01;;;;;;;3.30;0.30;;;4.20;58.30;;;;;;5076633;28;20174;-73
2021/03/07 08:26:49;;;;;;;0.80;0.30;;;4.20;58.30;;;;;;5074955;28;20168;-73
2021/03/07 08:29:43;;;;;;;0.80;0.30;;;4.30;56.30;;;;;;5075183;28;20192;-70
2021/03/07 08:32:41;;;;;;;1.25;0.20;;;4.30;55.80;;;;;;5074684;28;20162;-69
2021/03/07 08:35:20;;;;;;;2.67;0.50;;;4.50;54.80;;;;;;5074195;28;20209;-71
2021/03/07 08:38:13;;;;;;;1.17;0.20;;;4.30;52.60;;;;;;5089135;28;20180;-71
2021/03/07 08:40:44;;;;;;;1.98;0.30;;;4.70;53.60;;;;;;5075263;28;20170;-72
2021/03/07 08:43:22;;;;;;;5.95;0.32;;;4.80;51.20;;;;;;5059666;28;20170;-73
2021/03/07 08:46:08;;;;;;;0.30;0.20;;;4.70;51.90;;;;;;5091140;28;20176;-70
2021/03/07 08:48:35;;;;;;;3.88;0.60;;;4.90;51.70;;;;;;5091685;28;20209;-73
2021/03/07 08:51:02;;;;;;;2.90;0.45;;;5.10;51.50;;;;;;5073503;28;20659;-70
2021/03/07 08:53:30;;;;;;;3.53;0.43;;;5.40;50.30;;;;;;5073022;28;20224;-70
2021/03/07 08:55:56;;;;;;;1.67;0.20;;;5.30;50.10;;;;;;5091313;28;20696;-70
2021/03/07 08:58:22;;;;;;;9.55;0.40;;;5.60;50.40;;;;;;5091473;28;20642;-71
2021/03/07 09:00:50;;;;;;;5.35;0.20;;;5.30;50.10;;;;;;5085449;28;20193;-71
2021/03/07 09:03:20;;;;;;;1.40;0.38;;;5.40;49.30;;;;;;5075098;28;20170;-71
2021/03/07 09:05:47;;;;;;;1.98;0.45;;;5.10;48.80;;;;;;5093617;28;20533;-70
2021/03/07 09:08:13;;;;;;;5.20;0.50;;;5.20;47.80;;;;;;5093123;28;20544;-74
2021/03/07 09:10:44;;;;;;;2.83;0.22;;;5.20;49.30;;;;;;5093646;28;20181;-75
2021/03/07 09:13:11;;;;;;;1.95;0.40;;;5.10;45.80;;;;;;5075562;28;20173;-72
2021/03/07 09:15:56;;;;;;;3.30;0.40;;;5.10;46.90;;;;;;5093019;28;20205;-75
2021/03/07 09:18:23;;;;;;;1.58;0.30;;;5.70;46.80;;;;;;5093301;28;20532;-71
2021/03/07 09:20:51;;;;;;;4.80;0.40;;;5.60;45.90;;;;;;5092758;28;20205;-72
2021/03/07 09:23:52;;;;;;;0.85;0.10;;;5.90;45.20;;;;;;5092874;28;20176;-71
2021/03/07 09:26:20;;;;;;;1.10;0.20;;;5.50;42.40;;;;;;5089073;28;20191;-75
2021/03/07 09:28:47;;;;;;;1.08;0.32;;;5.30;40.80;;;;;;5092576;28;20177;-74
2021/03/07 09:31:18;;;;;;;1.48;0.30;;;5.20;41.00;;;;;;5093135;28;20217;-73
2021/03/07 09:33:56;;;;;;;2.08;0.40;;;6.20;42.30;;;;;;5074163;28;20193;-77
2021/03/07 09:36:31;;;;;;;2.90;0.35;;;6.60;39.60;;;;;;5074192;28;20205;-73
2021/03/07 09:39:11;;;;;;;4.38;0.20;;;6.70;36.50;;;;;;5074819;28;20181;-73
2021/03/07 09:41:43;;;;;;;0.57;0.10;;;5.70;35.00;;;;;;5093198;28;20180;-72
2021/03/07 09:44:16;;;;;;;1.58;0.28;;;5.70;33.00;;;;;;5092476;28;20540;-73
2021/03/07 09:46:43;;;;;;;4.00;0.20;;;6.00;32.00;;;;;;5093056;28;20657;-73
2021/03/07 09:49:09;;;;;;;0.47;0.10;;;6.00;31.30;;;;;;5092738;28;20185;-70
2021/03/07 09:51:39;;;;;;;1.73;0.20;;;5.60;33.20;;;;;;5074510;28;20173;-73
2021/03/07 09:54:12;;;;;;;0.82;0.17;;;6.10;31.60;;;;;;5074594;28;20180;-77
2021/03/07 09:56:38;;;;;;;3.15;0.30;;;6.10;33.10;;;;;;5092571;28;20188;-75
2021/03/07 09:59:27;;;;;;;2.72;0.30;;;6.30;31.30;;;;;;5092584;28;20181;-74
2021/03/07 10:02:01;;;;;;;2.05;0.45;;;6.00;30.40;;;;;;5074960;28;20165;-74
2021/03/07 10:04:37;;;;;;;3.08;0.20;;;6.30;31.20;;;;;;5092250;28;20517;-76
2021/03/07 10:07:12;;;;;;;2.28;0.45;;;6.90;32.40;;;;;;5091955;28;20185;-72
2021/03/07 10:10:16;;;;;;;1.75;0.20;;;5.80;29.60;;;;;;5092597;28;20169;-73
2021/03/07 10:12:43;;;;;;;1.00;0.28;;;6.30;29.00;;;;;;5092608;28;20180;-73
2021/03/07 10:15:21;;;;;;;7.38;0.25;;;6.00;28.70;;;;;;5092017;28;20201;-69
2021/03/07 10:17:47;;;;;;;3.72;0.43;;;6.50;28.20;;;;;;5092566;28;20169;-74
2021/03/07 10:20:14;;;;;;;1.85;0.40;;;6.20;28.50;;;;;;5074048;28;20178;-78
2021/03/07 10:22:44;;;;;;;0.82;0.30;;;6.40;29.10;;;;;;5073437;28;20186;-76
2021/03/07 10:25:31;;;;;;;0.85;0.15;;;6.90;28.90;;;;;;5091886;28;20540;-73
2021/03/07 10:28:09;;;;;;;0.95;0.20;;;6.30;28.50;;;;;;5092356;28;20525;-74
2021/03/07 10:30:39;;;;;;;1.25;0.20;;;6.40;27.10;;;;;;5091929;28;20685;-75
2021/03/07 10:33:29;;;;;;;3.13;0.30;;;7.00;25.90;;;;;;5083682;28;20192;-70
2021/03/07 10:36:09;;;;;;;0.80;0.10;;;6.30;26.60;;;;;;5070711;28;20223;-74
2021/03/07 10:39:08;;;;;;;6.55;0.20;;;6.40;26.20;;;;;;5072826;28;20668;-76
2021/03/07 10:41:34;;;;;;;3.83;0.47;;;6.70;27.00;;;;;;5092090;28;20165;-73
2021/03/07 10:44:02;;;;;;;0.60;0.20;;;7.40;25.80;;;;;;5073731;28;20552;-75
2021/03/07 10:46:28;;;;;;;3.92;0.40;;;7.50;24.70;;;;;;5091191;28;20181;-78
2021/03/07 10:48:55;;;;;;;0.68;0.13;;;8.40;24.50;;;;;;5092185;28;20174;-74
2021/03/07 10:51:22;;;;;;;5.68;0.30;;;7.20;25.50;;;;;;5091629;28;20177;-76
2021/03/07 10:53:49;;;;;;;0.90;0.40;;;7.70;24.10;;;;;;5074162;28;20634;-76
2021/03/07 10:56:15;;;;;;;6.90;0.40;;;8.20;23.10;;;;;;5091236;28;20205;-74
2021/03/07 10:58:41;;;;;;;1.55;0.20;;;8.30;21.00;;;;;;5091494;28;20177;-74
2021/03/07 11:01:11;;;;;;;3.05;0.28;;;7.70;21.70;;;;;;5092037;28;20188;-76
2021/03/07 11:03:37;;;;;;;2.40;0.20;;;8.30;22.70;;;;;;5074336;28;20180;-75
2021/03/07 11:06:03;;;;;;;0.70;0.10;;;7.90;22.50;;;;;;5091959;28;20532;-77
2021/03/07 11:08:30;;;;;;;3.97;0.40;;;8.20;22.60;;;;;;5091398;28;20173;-73
2021/03/07 11:10:56;;;;;;;0.65;0.20;;;9.00;21.30;;;;;;5091434;28;20181;-76
2021/03/07 11:13:22;;;;;;;1.10;0.20;;;9.20;21.80;;;;;;5091681;28;20532;-75
2021/03/07 11:15:48;;;;;;;5.43;0.32;;;8.90;21.20;;;;;;5091280;28;20657;-74
2021/03/07 11:18:14;;;;;;;1.42;0.30;;;9.30;21.30;;;;;;5073396;28;20192;-72
2021/03/07 11:20:40;;;;;;;0.30;0.17;;;8.60;20.70;;;;;;5091265;28;20192;-76
2021/03/07 11:23:06;;;;;;;0.73;0.20;;;8.00;21.10;;;;;;5091335;28;20181;-77
2021/03/07 11:25:32;;;;;;;1.65;0.22;;;9.00;20.10;;;;;;5064336;28;20208;-77
2021/03/07 11:27:59;;;;;;;0.80;0.22;;;9.60;19.80;;;;;;5091848;28;20185;-74
2021/03/07 11:30:25;;;;;;;1.98;0.30;;;9.80;20.00;;;;;;5091177;28;20222;-75
2021/03/07 11:32:51;;;;;;;1.30;0.68;;;8.80;20.40;;;;;;5073772;28;20185;-71
2021/03/07 11:35:17;;;;;;;2.17;0.30;;;8.70;20.70;;;;;;5090800;28;20221;-79
2021/03/07 11:37:43;;;;;;;1.52;0.30;;;11.20;19.40;;;;;;5091273;28;20177;-73
2021/03/07 11:40:10;;;;;;;0.43;0.10;;;11.60;17.60;;;;;;5091369;28;20185;-75
2021/03/07 11:42:36;;;;;;;3.22;0.30;;;8.60;18.60;;;;;;5091207;28;20180;-74
2021/03/07 11:45:04;;;;;;;2.80;0.30;;;6.70;18.80;;;;;;5073419;28;20184;-78
2021/03/07 11:47:30;;;;;;;;;;;8.00;18.20;;;;;;5091560;28;20480;-77
2021/03/07 11:49:55;;;;;;;;;;;7.10;18.70;;;;;;5073522;28;19912;-75
2021/03/07 11:52:21;;;;;;;24.52;0.50;;;7.20;18.70;;;;;;5094012;28;20190;-75
2021/03/07 11:54:48;;;;;;;3.08;0.20;;;7.20;20.20;;;;;;5094970;28;20189;-74
2021/03/07 11:57:14;;;;;;;2.50;0.30;;;8.60;19.00;;;;;;5094181;28;20222;-76
2021/03/07 11:59:40;;;;;;;0.20;0.08;;;8.40;18.90;;;;;;5094857;28;20173;-76
2021/03/07 12:02:07;;;;;;;1.30;0.20;;;11.10;16.80;;;;;;5094657;28;20184;-73
2021/03/07 12:04:34;;;;;;;0.80;0.20;;;8.40;17.90;;;;;;5076959;28;20192;-79
2021/03/07 12:07:00;;;;;;;0.20;0.10;;;8.50;16.80;;;;;;5094597;28;20180;-72
2021/03/07 12:09:26;;;;;;;21.52;0.77;;;7.00;19.50;;;;;;5094350;28;20184;-76
2021/03/07 12:11:52;;;;;;;0.70;0.10;;;7.00;19.90;;;;;;5076714;28;20181;-71
2021/03/07 12:14:18;;;;;;;0.52;0.20;;;6.90;19.20;;;;;;5094356;28;20200;-77
2021/03/07 12:16:45;;;;;;;1.35;0.15;;;6.60;19.60;;;;;;5094546;28;20310;-75
2021/03/07 12:19:11;;;;;;;2.75;0.30;;;9.60;18.80;;;;;;5094043;28;20181;-75
2021/03/07 12:21:37;;;;;;;1.05;0.20;;;10.20;17.70;;;;;;5094257;28;20204;-77
2021/03/07 12:24:03;;;;;;;6.13;0.30;;;9.80;18.40;;;;;;5094076;28;20201;-76
2021/03/07 12:26:29;;;;;;;0.50;0.20;;;8.40;18.80;;;;;;5094269;28;20173;-76
2021/03/07 12:28:55;;;;;;;1.15;0.20;;;9.10;17.10;;;;;;5093944;28;20185;-76
2021/03/07 12:31:22;;;;;;;2.80;0.20;;;10.30;18.90;;;;;;5076061;28;20221;-72
2021/03/07 12:33:48;;;;;;;1.40;0.28;;;8.70;18.00;;;;;;5094273;28;20173;-74
2021/03/07 12:36:14;;;;;;;1.25;0.20;;;8.50;18.20;;;;;;5093596;28;20885;-74
2021/03/07 12:38:40;;;;;;;1.48;0.20;;;9.10;16.10;;;;;;5094155;28;20188;-75
2021/03/07 12:41:06;;;;;;;3.15;0.30;;;7.90;16.00;;;;;;5094064;28;20181;-72
2021/03/07 12:43:32;;;;;;;1.35;0.30;;;7.20;17.70;;;;;;5093933;28;20181;-75
2021/03/07 12:45:58;;;;;;;41.72;1.33;;;6.40;18.90;;;;;;5076297;28;20196;-76
2021/03/07 12:48:25;;;;;;;1.85;0.22;;;8.50;18.70;;;;;;5093447;28;20201;-72
2021/03/07 12:50:51;;;;;;;2.55;0.10;;;8.30;16.40;;;;;;5094192;28;20189;-73
2021/03/07 12:53:17;;;;;;;1.58;0.20;;;10.00;15.20;;;;;;5093293;28;20185;-77
2021/03/07 12:55:43;;;;;;;0.52;0.08;;;8.30;15.30;;;;;;5093416;28;20213;-77
2021/03/07 12:58:09;;;;;;;2.47;0.50;;;9.80;14.40;;;;;;5076035;28;20189;-76
2021/03/07 13:00:35;;;;;;;0.40;0.10;;;9.70;15.10;;;;;;5093521;28;20177;-72
2021/03/07 13:03:01;;;;;;;0.60;0.10;;;9.00;14.30;;;;;;5054959;28;20186;-73
2021/03/07 13:05:27;;;;;;;0.77;0.20;;;7.80;16.50;;;;;;5092287;28;20181;-74